createdAt,value
2023-01-05T00:01:32.231Z,25.63
2023-01-05T00:03:59.649Z,25.70
2023-01-05T00:06:27.005Z,32.53
2023-01-05T00:08:54.365Z,32.30
2023-01-05T00:11:42.103Z,32.55
2023-01-05T00:14:36.799Z,30.85
2023-01-05T00:17:22.826Z,21.17
2023-01-05T00:20:08.585Z,25.42
2023-01-05T00:22:45.962Z,24.60
2023-01-05T00:25:25.335Z,25.83
2023-01-05T00:27:54.031Z,27.20
2023-01-05T00:30:24.413Z,27.17
2023-01-05T00:32:52.665Z,24.88
2023-01-05T00:35:21.246Z,29.60
2023-01-05T00:37:49.408Z,34.65
2023-01-05T00:40:19.276Z,37.45
2023-01-05T00:42:47.349Z,24.77
2023-01-05T00:45:17.098Z,23.23
2023-01-05T00:47:45.252Z,29.75
2023-01-05T00:50:15.773Z,28.20
2023-01-05T00:52:44.393Z,34.45
2023-01-05T00:55:11.917Z,16.70
2023-01-05T00:57:39.948Z,41.17
2023-01-05T01:00:12.649Z,32.17
2023-01-05T01:02:39.968Z,39.33
2023-01-05T01:05:07.772Z,22.85
2023-01-05T01:07:35.003Z,30.25
2023-01-05T01:10:05.370Z,43.42
2023-01-05T01:12:32.655Z,28.38
2023-01-05T01:14:59.908Z,40.53
2023-01-05T01:17:27.239Z,38.90
2023-01-05T01:19:54.455Z,35.20
2023-01-05T01:22:21.668Z,38.97
2023-01-05T01:24:48.830Z,38.15
2023-01-05T01:27:16.054Z,28.58
2023-01-05T01:29:43.320Z,27.08
2023-01-05T01:32:10.584Z,47.83
2023-01-05T01:34:39.565Z,29.90
2023-01-05T01:37:06.924Z,29.75
2023-01-05T01:39:39.530Z,32.28
2023-01-05T01:42:15.604Z,35.80
2023-01-05T01:44:56.269Z,36.58
2023-01-05T01:47:45.704Z,32.40
2023-01-05T01:50:27.989Z,40.55
2023-01-05T01:53:00.209Z,33.90
2023-01-05T01:55:28.427Z,39.58
2023-01-05T01:57:56.410Z,40.00
2023-01-05T02:00:24.162Z,42.47
2023-01-05T02:02:54.693Z,41.58
2023-01-05T02:05:33.358Z,28.38
2023-01-05T02:08:00.873Z,31.98
2023-01-05T02:10:55.497Z,28.05
2023-01-05T02:14:00.116Z,35.88
2023-01-05T02:16:52.077Z,42.22
2023-01-05T02:19:46.779Z,20.20
2023-01-05T02:25:38.486Z,39.47
2023-01-05T02:28:14.856Z,57.38
2023-01-05T02:30:59.878Z,31.13
2023-01-05T02:33:56.235Z,28.05
2023-01-05T02:36:40.641Z,22.60
2023-01-05T02:39:18.747Z,33.03
2023-01-05T02:42:03.307Z,29.65
2023-01-05T02:44:32.759Z,27.83
2023-01-05T02:47:25.900Z,21.40
2023-01-05T02:50:01.124Z,29.70
2023-01-05T02:52:38.013Z,24.48
2023-01-05T02:55:09.603Z,32.88
2023-01-05T02:57:47.983Z,28.65
2023-01-05T03:00:43.058Z,28.20
2023-01-05T03:03:14.714Z,37.40
2023-01-05T03:05:52.361Z,33.42
2023-01-05T03:08:30.794Z,30.65
2023-01-05T03:11:25.201Z,31.02
2023-01-05T03:14:16.758Z,40.78
2023-01-05T03:16:47.894Z,35.78
2023-01-05T03:19:40.065Z,42.78
2023-01-05T03:22:40.646Z,30.20
2023-01-05T03:25:28.499Z,27.60
2023-01-05T03:28:16.591Z,27.70
2023-01-05T03:31:24.117Z,35.17
2023-01-05T03:34:28.023Z,43.40
2023-01-05T03:37:02.266Z,34.65
2023-01-05T03:39:31.821Z,32.53
2023-01-05T03:42:02.382Z,26.10
2023-01-05T03:44:30.371Z,42.47
2023-01-05T03:46:58.516Z,39.50
2023-01-05T03:49:25.839Z,29.80
2023-01-05T03:51:53.020Z,32.28
2023-01-05T03:54:20.240Z,35.60
2023-01-05T03:56:48.426Z,40.78
2023-01-05T03:59:15.916Z,36.88
2023-01-05T04:01:44.052Z,38.45
2023-01-05T04:04:14.272Z,33.35
2023-01-05T04:06:41.918Z,28.92
2023-01-05T04:09:11.102Z,40.60
2023-01-05T04:11:41.507Z,44.30
2023-01-05T04:14:09.261Z,36.83
2023-01-05T04:16:36.608Z,47.42
2023-01-05T04:19:13.429Z,33.28
2023-01-05T04:21:41.301Z,35.40
2023-01-05T04:24:10.905Z,36.67
2023-01-05T04:26:41.960Z,36.33
2023-01-05T04:29:11.354Z,35.90
2023-01-05T04:31:39.809Z,30.48
2023-01-05T04:34:08.284Z,34.90
2023-01-05T04:36:36.765Z,39.03
2023-01-05T04:39:04.572Z,36.30
2023-01-05T04:41:32.423Z,31.90
2023-01-05T04:43:59.875Z,40.47
2023-01-05T04:46:28.231Z,38.92
2023-01-05T04:48:56.875Z,51.90
2023-01-05T04:51:24.826Z,33.33
2023-01-05T04:53:52.066Z,37.55
2023-01-05T04:56:22.508Z,43.70
2023-01-05T04:58:50.069Z,36.95
2023-01-05T05:01:17.425Z,39.83
2023-01-05T05:03:49.767Z,29.77
2023-01-05T05:06:19.979Z,44.53
2023-01-05T05:08:49.242Z,40.90
2023-01-05T05:11:16.548Z,43.78
2023-01-05T05:13:46.612Z,38.75
2023-01-05T05:16:14.456Z,43.25
2023-01-05T05:18:44.229Z,32.75
2023-01-05T05:21:16.788Z,34.03
2023-01-05T05:23:44.475Z,35.55
2023-01-05T05:26:11.739Z,33.38
2023-01-05T05:28:39.090Z,38.70
2023-01-05T05:31:06.345Z,30.17
2023-01-05T05:33:33.615Z,33.17
2023-01-05T05:36:00.935Z,35.70
2023-01-05T05:38:28.123Z,40.65
2023-01-05T05:40:55.390Z,30.70
2023-01-05T05:43:22.626Z,35.72
2023-01-05T05:45:50.838Z,44.55
2023-01-05T05:48:19.430Z,34.15
2023-01-05T05:50:46.679Z,40.50
2023-01-05T05:53:13.969Z,37.83
2023-01-05T05:55:41.295Z,33.42
2023-01-05T05:58:09.250Z,33.70
2023-01-05T06:00:36.572Z,48.45
2023-01-05T06:03:03.933Z,30.90
2023-01-05T06:05:31.210Z,26.38
2023-01-05T06:07:58.434Z,32.08
2023-01-05T06:10:26.010Z,26.35
2023-01-05T06:12:54.519Z,32.13
2023-01-05T06:15:23.263Z,34.72
2023-01-05T06:17:50.712Z,42.88
2023-01-05T06:20:18.214Z,36.63
2023-01-05T06:22:45.443Z,26.95
2023-01-05T06:25:12.709Z,36.47
2023-01-05T06:27:39.907Z,27.65
2023-01-05T06:30:07.820Z,39.92
2023-01-05T06:32:35.049Z,38.22
2023-01-05T06:35:02.317Z,27.80
2023-01-05T06:37:29.571Z,28.27
2023-01-05T06:39:56.828Z,31.95
2023-01-05T06:42:24.283Z,21.05
2023-01-05T06:44:51.694Z,32.40
2023-01-05T06:47:19.897Z,40.05
2023-01-05T06:49:47.403Z,44.17
2023-01-05T06:52:16.928Z,30.98
2023-01-05T06:54:44.987Z,40.42
2023-01-05T06:57:12.202Z,25.80
2023-01-05T06:59:39.476Z,35.40
2023-01-05T07:02:13.251Z,32.75
2023-01-05T07:04:40.584Z,28.10
2023-01-05T07:07:08.898Z,23.58
2023-01-05T07:09:36.122Z,34.50
2023-01-05T07:12:03.516Z,23.40
2023-01-05T07:14:30.815Z,29.33
2023-01-05T07:16:58.314Z,34.17
2023-01-05T07:19:25.522Z,25.83
2023-01-05T07:21:56.775Z,30.85
2023-01-05T07:24:24.794Z,28.08
2023-01-05T07:26:51.984Z,30.67
2023-01-05T07:29:19.190Z,24.02
2023-01-05T07:31:47.713Z,35.67
2023-01-05T07:34:14.917Z,32.92
2023-01-05T07:36:42.138Z,29.05
2023-01-05T07:39:09.336Z,30.92
2023-01-05T07:41:36.509Z,23.73
2023-01-05T07:44:05.302Z,26.17
2023-01-05T07:46:32.562Z,18.80
2023-01-05T07:48:59.846Z,23.73
2023-01-05T07:51:27.025Z,25.05
2023-01-05T07:53:56.125Z,31.92
2023-01-05T07:56:23.444Z,24.85
2023-01-05T07:58:50.666Z,22.33
2023-01-05T08:01:18.587Z,24.35
2023-01-05T08:03:46.563Z,39.03
2023-01-05T08:06:19.604Z,26.25
2023-01-05T08:08:47.403Z,29.00
2023-01-05T08:11:16.124Z,20.15
2023-01-05T08:13:59.934Z,35.78
2023-01-05T08:16:32.132Z,29.40
2023-01-05T08:19:00.037Z,32.83
2023-01-05T08:21:27.489Z,24.08
2023-01-05T08:23:54.871Z,31.02
2023-01-05T08:26:23.927Z,27.77
2023-01-05T08:28:51.857Z,23.95
2023-01-05T08:31:26.018Z,24.67
2023-01-05T08:34:00.427Z,34.08
2023-01-05T08:36:28.138Z,22.85
2023-01-05T08:38:55.992Z,38.13
2023-01-05T08:41:28.608Z,34.70
2023-01-05T08:43:57.664Z,37.97
2023-01-05T08:46:27.216Z,22.08
2023-01-05T08:48:56.943Z,31.00
2023-01-05T08:51:24.625Z,34.45
2023-01-05T08:53:52.145Z,25.58
2023-01-05T08:56:19.649Z,29.58
2023-01-05T08:58:47.088Z,15.73
2023-01-05T09:01:16.959Z,35.35
2023-01-05T09:03:44.818Z,39.67
2023-01-05T09:06:13.327Z,25.23
2023-01-05T09:08:42.312Z,33.25
2023-01-05T09:11:17.759Z,35.05
2023-01-05T09:13:59.353Z,25.58
2023-01-05T09:17:04.663Z,39.65
2023-01-05T09:19:16.896Z,30.90
2023-01-05T09:21:44.702Z,26.05
2023-01-05T09:24:13.333Z,25.95
2023-01-05T09:26:42.178Z,22.83
2023-01-05T09:29:10.361Z,22.10
2023-01-05T09:31:37.786Z,18.95
2023-01-05T09:34:05.177Z,12.95
2023-01-05T09:36:32.791Z,23.30
2023-01-05T09:39:00.016Z,32.60
2023-01-05T09:41:43.034Z,30.60
2023-01-05T09:44:58.927Z,22.02
2023-01-05T09:47:36.862Z,26.95
2023-01-05T09:50:08.762Z,13.38
2023-01-05T09:52:38.687Z,14.20
2023-01-05T09:55:21.315Z,12.13
2023-01-05T09:58:10.569Z,21.00
2023-01-05T10:00:43.489Z,16.00
2023-01-05T10:03:44.689Z,17.45
2023-01-05T10:06:06.166Z,15.40
2023-01-05T10:08:38.454Z,20.02
2023-01-05T10:11:37.848Z,11.63
2023-01-05T10:14:24.546Z,13.30
2023-01-05T10:17:02.736Z,12.43
2023-01-05T10:19:39.291Z,13.85
2023-01-05T10:22:18.612Z,13.10
2023-01-05T10:25:13.769Z,17.70
2023-01-05T10:27:51.844Z,8.88
2023-01-05T10:30:26.716Z,11.57
2023-01-05T10:33:21.823Z,6.88
2023-01-05T10:36:48.831Z,9.32
2023-01-05T10:39:54.163Z,11.65
2023-01-05T10:42:38.283Z,9.65
2023-01-05T10:45:14.729Z,9.63
2023-01-05T10:47:46.287Z,9.98
2023-01-05T10:50:31.874Z,8.80
2023-01-05T10:53:09.223Z,5.00
2023-01-05T10:58:29.179Z,6.68
2023-01-05T11:01:26.168Z,5.53
2023-01-05T11:06:50.114Z,6.15
2023-01-05T11:09:22.620Z,4.95
2023-01-05T11:12:01.393Z,5.20
2023-01-05T11:14:36.943Z,5.18
2023-01-05T11:17:07.754Z,4.43
2023-01-05T11:19:44.384Z,5.70
2023-01-05T11:22:28.143Z,2.25
2023-01-05T11:25:12.776Z,2.58
2023-01-05T11:27:40.451Z,2.03
2023-01-05T11:30:16.728Z,4.03
2023-01-05T11:32:44.918Z,5.97
2023-01-05T11:35:25.690Z,2.00
2023-01-05T11:37:52.887Z,1.67
2023-01-05T11:40:24.091Z,2.05
2023-01-05T11:42:51.412Z,4.72
2023-01-05T11:45:47.288Z,2.20
2023-01-05T11:48:20.629Z,5.00
2023-01-05T11:50:53.828Z,2.85
2023-01-05T11:53:24.059Z,8.38
2023-01-05T11:56:21.005Z,3.97
2023-01-05T11:58:50.714Z,3.00
2023-01-05T12:01:17.882Z,3.75
2023-01-05T12:03:59.345Z,3.33
2023-01-05T12:06:44.714Z,4.25
2023-01-05T12:09:34.954Z,3.00
2023-01-05T12:12:21.650Z,5.90
2023-01-05T12:14:51.869Z,3.33
2023-01-05T12:17:47.893Z,4.28
2023-01-05T12:20:33.551Z,6.30
2023-01-05T12:23:19.153Z,3.50
2023-01-05T12:26:10.360Z,11.35
2023-01-05T12:35:34.275Z,4.60
2023-01-05T12:38:48.581Z,10.07
2023-01-05T12:41:21.565Z,7.78
2023-01-05T12:44:01.771Z,6.93
2023-01-05T12:46:42.558Z,4.43
2023-01-05T12:49:25.826Z,10.82
2023-01-05T12:52:07.052Z,9.02
2023-01-05T12:55:02.106Z,11.75
2023-01-05T12:57:38.060Z,5.63
2023-01-05T13:00:08.387Z,8.63
2023-01-05T13:02:36.793Z,7.57
2023-01-05T13:05:14.315Z,8.15
2023-01-05T13:08:16.102Z,8.23
2023-01-05T13:10:56.438Z,9.82
2023-01-05T13:13:36.190Z,7.35
2023-01-05T13:16:17.996Z,5.47
2023-01-05T13:19:01.046Z,3.00
2023-01-05T13:21:29.137Z,8.30
2023-01-05T13:24:04.534Z,10.50
2023-01-05T13:26:37.770Z,4.65
2023-01-05T13:29:05.575Z,9.30
2023-01-05T13:32:09.565Z,8.85
2023-01-05T13:35:08.380Z,7.55
2023-01-05T13:38:03.669Z,8.40
2023-01-05T13:43:32.259Z,15.07
2023-01-05T13:49:09.161Z,11.82
2023-01-05T13:51:55.233Z,16.85
2023-01-05T13:54:43.098Z,15.25
2023-01-05T13:57:24.861Z,20.13
2023-01-05T14:00:06.147Z,16.77
2023-01-05T14:02:46.651Z,16.50
2023-01-05T14:05:28.948Z,12.55
2023-01-05T14:07:59.087Z,16.60
2023-01-05T14:10:29.886Z,12.90
2023-01-05T14:12:58.484Z,12.88
2023-01-05T14:15:44.391Z,14.77
2023-01-05T14:18:13.585Z,21.60
2023-01-05T14:20:46.529Z,19.77
2023-01-05T14:23:23.478Z,15.02
2023-01-05T14:26:00.825Z,8.50
2023-01-05T14:28:31.129Z,19.33
2023-01-05T14:31:21.633Z,18.58
2023-01-05T14:33:58.163Z,14.93
2023-01-05T14:36:29.528Z,15.35
2023-01-05T14:39:01.629Z,16.58
2023-01-05T14:41:31.094Z,13.15
2023-01-05T14:44:01.363Z,10.15
2023-01-05T14:46:42.303Z,15.07
2023-01-05T14:49:31.220Z,12.90
2023-01-05T14:52:01.266Z,26.77
2023-01-05T14:54:41.507Z,27.33
2023-01-05T14:57:20.831Z,14.90
2023-01-05T14:59:50.099Z,11.63
2023-01-05T15:02:26.669Z,14.80
2023-01-05T15:05:00.492Z,22.98
2023-01-05T15:07:46.065Z,19.85
2023-01-05T15:10:29.509Z,18.88
2023-01-05T15:13:08.688Z,20.40
2023-01-05T15:15:47.945Z,17.65
2023-01-05T15:18:24.091Z,18.25
2023-01-05T15:21:00.205Z,12.40
2023-01-05T15:23:55.493Z,15.95
2023-01-05T15:28:52.746Z,16.85
2023-01-05T15:31:30.071Z,15.48
2023-01-05T15:34:38.323Z,20.75
2023-01-05T15:37:37.421Z,27.70
2023-01-05T15:40:26.746Z,25.98
2023-01-05T15:42:57.211Z,14.73
2023-01-05T15:45:35.120Z,13.50
2023-01-05T15:48:13.811Z,15.90
2023-01-05T15:50:50.051Z,17.17
2023-01-05T15:53:40.841Z,20.45
2023-01-05T15:56:30.500Z,23.58
2023-01-05T15:58:58.343Z,21.05
2023-01-05T16:01:27.674Z,21.20
2023-01-05T16:04:08.908Z,14.95
2023-01-05T16:06:39.742Z,15.13
2023-01-05T16:09:22.387Z,14.27
2023-01-05T16:11:51.605Z,20.40
2023-01-05T16:14:29.017Z,14.85
2023-01-05T16:17:10.413Z,19.13
2023-01-05T16:19:49.292Z,13.50
2023-01-05T16:22:26.699Z,14.50
2023-01-05T16:25:18.272Z,18.27
2023-01-05T16:27:50.005Z,19.60
2023-01-05T16:30:31.137Z,10.02
2023-01-05T16:33:20.712Z,11.77
2023-01-05T16:35:50.073Z,9.20
2023-01-05T16:38:24.705Z,12.73
2023-01-05T16:43:35.759Z,17.42
2023-01-05T16:46:20.680Z,15.55
2023-01-05T16:48:54.699Z,12.88
2023-01-05T16:51:31.888Z,19.45
2023-01-05T16:54:15.073Z,7.63
2023-01-05T16:56:53.475Z,9.20
2023-01-05T16:59:44.268Z,7.82
2023-01-05T17:02:32.017Z,15.90
2023-01-05T17:04:59.226Z,12.20
2023-01-05T17:07:26.605Z,10.60
2023-01-05T17:09:54.161Z,13.55
2023-01-05T17:12:21.404Z,13.07
2023-01-05T17:14:48.702Z,9.20
2023-01-05T17:17:16.141Z,11.60
2023-01-05T17:19:43.476Z,6.43
2023-01-05T17:22:12.724Z,9.88
2023-01-05T17:24:40.462Z,12.95
2023-01-05T17:29:38.799Z,7.35
2023-01-05T17:32:06.058Z,8.57
2023-01-05T17:34:33.295Z,12.70
2023-01-05T17:37:01.273Z,6.30
2023-01-05T17:39:29.039Z,14.18
2023-01-05T17:42:21.277Z,5.55
2023-01-05T17:44:51.984Z,13.23
2023-01-05T17:47:19.426Z,7.95
2023-01-05T17:49:46.636Z,15.48
2023-01-05T17:52:14.085Z,8.25
2023-01-05T17:54:41.903Z,12.02
2023-01-05T17:57:12.446Z,9.20
2023-01-05T17:59:39.732Z,12.23
2023-01-05T18:02:07.231Z,13.32
2023-01-05T18:04:34.583Z,12.88
2023-01-05T18:07:01.861Z,6.97
2023-01-05T18:09:29.385Z,11.55
2023-01-05T18:11:56.677Z,7.38
2023-01-05T18:14:23.958Z,11.45
2023-01-05T18:16:51.154Z,6.30
2023-01-05T18:19:18.402Z,12.45
2023-01-05T18:21:45.650Z,5.80
2023-01-05T18:24:12.879Z,11.85
2023-01-05T18:26:40.061Z,2.78
2023-01-05T18:29:07.336Z,9.73
2023-01-05T18:31:40.258Z,5.93
2023-01-05T18:34:09.238Z,7.07
2023-01-05T18:36:36.476Z,5.65
2023-01-05T18:39:03.737Z,12.20
2023-01-05T18:41:30.944Z,8.02
2023-01-05T18:43:58.203Z,5.25
2023-01-05T18:46:25.521Z,8.45
2023-01-05T18:48:52.973Z,7.00
2023-01-05T18:51:20.225Z,9.55
2023-01-05T18:53:47.461Z,3.58
2023-01-05T18:56:15.724Z,5.40
2023-01-05T18:58:43.498Z,8.27
2023-01-05T19:01:16.718Z,4.68
2023-01-05T19:03:44.481Z,3.17
2023-01-05T19:06:17.774Z,5.20
2023-01-05T19:08:48.900Z,3.30
2023-01-05T19:11:17.601Z,11.95
2023-01-05T19:13:45.489Z,9.70
2023-01-05T19:16:15.239Z,5.15
2023-01-05T19:18:43.683Z,4.90
2023-01-05T19:21:10.920Z,12.82
2023-01-05T19:23:38.193Z,5.82
2023-01-05T19:26:06.930Z,4.90
2023-01-05T19:28:38.604Z,3.35
2023-01-05T19:31:11.146Z,10.43
2023-01-05T19:33:39.136Z,11.02
2023-01-05T19:36:11.664Z,6.35
2023-01-05T19:38:39.464Z,17.52
2023-01-05T19:41:08.648Z,11.40
2023-01-05T19:43:37.281Z,10.88
2023-01-05T19:46:06.916Z,7.95
2023-01-05T19:48:36.563Z,7.50
2023-01-05T19:51:08.776Z,8.95
2023-01-05T19:53:37.572Z,8.27
2023-01-05T19:56:10.210Z,9.73
2023-01-05T19:58:37.621Z,6.82
2023-01-05T20:01:09.733Z,14.45
2023-01-05T20:03:36.923Z,8.98
2023-01-05T20:06:09.012Z,16.38
2023-01-05T20:08:37.314Z,12.07
2023-01-05T20:11:09.670Z,8.55
2023-01-05T20:13:37.154Z,10.57
2023-01-05T20:16:10.648Z,7.78
2023-01-05T20:18:39.025Z,26.10
2023-01-05T20:21:08.579Z,11.13
2023-01-05T20:23:38.553Z,10.23
2023-01-05T20:26:10.621Z,13.68
2023-01-05T20:28:38.474Z,13.38
2023-01-05T20:31:13.870Z,22.95
2023-01-05T20:33:41.082Z,11.80
2023-01-05T20:36:08.426Z,15.25
2023-01-05T20:38:35.916Z,6.50
2023-01-05T20:41:13.062Z,20.98
2023-01-05T20:43:42.924Z,9.63
2023-01-05T20:46:10.353Z,12.57
2023-01-05T20:48:37.959Z,11.75
2023-01-05T20:51:06.913Z,11.90
2023-01-05T20:53:34.452Z,19.42
2023-01-05T20:56:08.784Z,10.40
2023-01-05T20:58:36.495Z,11.68
2023-01-05T21:01:10.814Z,10.52
2023-01-05T21:03:39.766Z,8.63
2023-01-05T21:06:10.299Z,8.70
2023-01-05T21:08:38.776Z,12.73
2023-01-05T21:11:15.853Z,13.70
2023-01-05T21:13:45.080Z,10.35
2023-01-05T21:16:34.809Z,13.35
2023-01-05T21:19:02.434Z,7.28
2023-01-05T21:21:30.541Z,9.07
2023-01-05T21:23:58.340Z,8.07
2023-01-05T21:26:25.767Z,6.38
2023-01-05T21:28:54.250Z,9.85
2023-01-05T21:31:24.389Z,15.00
2023-01-05T21:33:52.492Z,10.88
2023-01-05T21:36:25.505Z,6.95
2023-01-05T21:39:03.620Z,13.48
2023-01-05T21:41:50.737Z,14.60
2023-01-05T21:44:20.065Z,10.27
2023-01-05T21:46:48.492Z,8.30
2023-01-05T21:49:16.990Z,11.38
2023-01-05T21:52:03.071Z,11.63
2023-01-05T21:54:49.421Z,5.40
2023-01-05T21:57:17.138Z,13.38
2023-01-05T21:59:44.971Z,7.43
2023-01-05T22:02:13.320Z,15.68
2023-01-05T22:04:41.005Z,8.70
2023-01-05T22:07:08.284Z,7.32
2023-01-05T22:09:36.344Z,8.20
2023-01-05T22:12:10.494Z,5.22
2023-01-05T22:14:38.365Z,9.18
2023-01-05T22:17:07.314Z,9.57
2023-01-05T22:19:34.849Z,7.68
2023-01-05T22:22:02.231Z,12.50
2023-01-05T22:24:29.795Z,7.95
2023-01-05T22:26:57.020Z,11.27
2023-01-05T22:29:24.868Z,6.53
2023-01-05T22:31:52.237Z,9.20
2023-01-05T22:34:19.774Z,13.98
2023-01-05T22:36:47.449Z,7.68
2023-01-05T22:39:14.712Z,10.43
2023-01-05T22:41:42.477Z,6.00
2023-01-05T22:44:09.827Z,9.30
2023-01-05T22:46:37.200Z,14.20
2023-01-05T22:49:04.482Z,9.98
2023-01-05T22:51:37.074Z,4.82
2023-01-05T22:54:05.181Z,5.88
2023-01-05T22:56:33.525Z,8.40
2023-01-05T22:59:01.847Z,8.27
2023-01-05T23:01:35.137Z,7.40
2023-01-05T23:04:04.431Z,6.97
2023-01-05T23:06:32.640Z,5.15
2023-01-05T23:09:00.442Z,9.15
2023-01-05T23:11:30.983Z,7.40
2023-01-05T23:13:59.600Z,3.55
2023-01-05T23:16:27.969Z,9.85
2023-01-05T23:18:55.434Z,8.05
2023-01-05T23:21:24.306Z,12.20
2023-01-05T23:23:53.056Z,11.98
2023-01-05T23:26:20.887Z,11.30
2023-01-05T23:28:48.941Z,8.07
2023-01-05T23:31:16.576Z,5.18
2023-01-05T23:33:44.780Z,7.68
2023-01-05T23:36:13.723Z,5.70
2023-01-05T23:38:41.169Z,5.90
2023-01-05T23:41:10.542Z,8.98
2023-01-05T23:43:40.083Z,11.00
2023-01-05T23:46:10.422Z,14.52
2023-01-05T23:48:38.568Z,7.35
2023-01-05T23:51:07.848Z,4.53
2023-01-05T23:53:35.064Z,4.95
2023-01-05T23:56:08.208Z,5.65
2023-01-05T23:58:36.206Z,6.60
